sensor_id;sensor_type;location;lat;lon;timestamp;P1;durP1;ratioP1;P2;durP2;ratioP2
1336;SDS011;662;48.814;9.318;2022-12-18T00:03:48;72.57;;;48.72;;
1336;SDS011;662;48.814;9.318;2022-12-18T00:06:15;72.95;;;47.17;;
1336;SDS011;662;48.814;9.318;2022-12-18T00:08:42;73.03;;;48.22;;
1336;SDS011;662;48.814;9.318;2022-12-18T00:11:10;74.32;;;46.40;;
1336;SDS011;662;48.814;9.318;2022-12-18T00:13:38;70.15;;;45.67;;
1336;SDS011;662;48.814;9.318;2022-12-18T00:16:07;78.03;;;45.03;;
1336;SDS011;662;48.814;9.318;2022-12-18T00:18:35;70.97;;;46.72;;
1336;SDS011;662;48.814;9.318;2022-12-18T00:21:02;75.00;;;46.78;;
1336;SDS011;662;48.814;9.318;2022-12-18T00:23:30;72.70;;;46.75;;
1336;SDS011;662;48.814;9.318;2022-12-18T00:26:00;73.75;;;47.30;;
1336;SDS011;662;48.814;9.318;2022-12-18T00:28:36;66.47;;;45.28;;
1336;SDS011;662;48.814;9.318;2022-12-18T00:31:05;80.67;;;45.60;;
1336;SDS011;662;48.814;9.318;2022-12-18T00:33:36;72.35;;;47.63;;
1336;SDS011;662;48.814;9.318;2022-12-18T00:36:22;76.05;;;46.38;;
1336;SDS011;662;48.814;9.318;2022-12-18T00:38:50;72.72;;;47.50;;
1336;SDS011;662;48.814;9.318;2022-12-18T00:41:16;76.63;;;47.10;;
1336;SDS011;662;48.814;9.318;2022-12-18T00:44:02;76.75;;;48.60;;
1336;SDS011;662;48.814;9.318;2022-12-18T00:46:28;87.15;;;50.22;;
1336;SDS011;662;48.814;9.318;2022-12-18T00:48:54;80.95;;;45.33;;
1336;SDS011;662;48.814;9.318;2022-12-18T00:51:20;77.43;;;47.00;;
1336;SDS011;662;48.814;9.318;2022-12-18T00:53:45;78.27;;;46.37;;
1336;SDS011;662;48.814;9.318;2022-12-18T00:56:11;76.83;;;46.50;;
1336;SDS011;662;48.814;9.318;2022-12-18T00:58:37;80.13;;;49.27;;
1336;SDS011;662;48.814;9.318;2022-12-18T01:01:05;70.47;;;47.37;;
1336;SDS011;662;48.814;9.318;2022-12-18T01:03:31;67.90;;;44.72;;
1336;SDS011;662;48.814;9.318;2022-12-18T01:05:57;70.60;;;42.90;;
1336;SDS011;662;48.814;9.318;2022-12-18T01:08:23;69.27;;;44.17;;
1336;SDS011;662;48.814;9.318;2022-12-18T01:10:49;67.60;;;43.30;;
1336;SDS011;662;48.814;9.318;2022-12-18T01:13:15;70.13;;;45.15;;
1336;SDS011;662;48.814;9.318;2022-12-18T01:15:47;73.90;;;46.40;;
1336;SDS011;662;48.814;9.318;2022-12-18T01:18:14;71.30;;;44.13;;
1336;SDS011;662;48.814;9.318;2022-12-18T01:20:40;67.90;;;43.50;;
1336;SDS011;662;48.814;9.318;2022-12-18T01:23:05;66.00;;;42.60;;
1336;SDS011;662;48.814;9.318;2022-12-18T01:25:31;76.33;;;44.20;;
1336;SDS011;662;48.814;9.318;2022-12-18T01:27:57;72.57;;;45.13;;
1336;SDS011;662;48.814;9.318;2022-12-18T01:30:22;73.00;;;46.27;;
1336;SDS011;662;48.814;9.318;2022-12-18T01:32:48;72.00;;;45.40;;
1336;SDS011;662;48.814;9.318;2022-12-18T01:35:14;74.93;;;45.43;;
1336;SDS011;662;48.814;9.318;2022-12-18T01:37:40;64.87;;;43.10;;
1336;SDS011;662;48.814;9.318;2022-12-18T01:40:05;66.93;;;42.43;;
1336;SDS011;662;48.814;9.318;2022-12-18T01:42:32;63.95;;;43.28;;
1336;SDS011;662;48.814;9.318;2022-12-18T01:47:59;60.38;;;40.65;;
1336;SDS011;662;48.814;9.318;2022-12-18T01:50:38;59.47;;;40.15;;
1336;SDS011;662;48.814;9.318;2022-12-18T01:53:14;66.70;;;42.40;;
1336;SDS011;662;48.814;9.318;2022-12-18T01:55:46;64.78;;;40.08;;
1336;SDS011;662;48.814;9.318;2022-12-18T01:58:15;58.95;;;38.85;;
1336;SDS011;662;48.814;9.318;2022-12-18T02:00:43;56.65;;;38.95;;
1336;SDS011;662;48.814;9.318;2022-12-18T02:03:11;59.85;;;39.65;;
1336;SDS011;662;48.814;9.318;2022-12-18T02:05:44;57.57;;;37.00;;
1336;SDS011;662;48.814;9.318;2022-12-18T02:08:21;58.90;;;39.55;;
1336;SDS011;662;48.814;9.318;2022-12-18T02:10:54;56.60;;;37.70;;
1336;SDS011;662;48.814;9.318;2022-12-18T02:13:42;55.08;;;38.10;;
1336;SDS011;662;48.814;9.318;2022-12-18T02:19:01;61.03;;;38.97;;
1336;SDS011;662;48.814;9.318;2022-12-18T02:21:40;61.75;;;39.53;;
1336;SDS011;662;48.814;9.318;2022-12-18T02:24:29;60.88;;;37.97;;
1336;SDS011;662;48.814;9.318;2022-12-18T02:27:21;57.63;;;38.33;;
1336;SDS011;662;48.814;9.318;2022-12-18T02:29:51;55.40;;;36.50;;
1336;SDS011;662;48.814;9.318;2022-12-18T02:32:23;58.55;;;39.35;;
1336;SDS011;662;48.814;9.318;2022-12-18T02:34:58;60.45;;;39.80;;
1336;SDS011;662;48.814;9.318;2022-12-18T02:37:25;59.30;;;37.97;;
1336;SDS011;662;48.814;9.318;2022-12-18T02:39:53;55.33;;;36.45;;
1336;SDS011;662;48.814;9.318;2022-12-18T02:42:21;60.88;;;38.35;;
1336;SDS011;662;48.814;9.318;2022-12-18T02:44:49;56.92;;;36.72;;
1336;SDS011;662;48.814;9.318;2022-12-18T02:47:20;53.88;;;35.20;;
1336;SDS011;662;48.814;9.318;2022-12-18T02:49:53;54.13;;;36.13;;
1336;SDS011;662;48.814;9.318;2022-12-18T02:53:06;60.28;;;38.53;;
1336;SDS011;662;48.814;9.318;2022-12-18T02:58:26;65.78;;;44.00;;
1336;SDS011;662;48.814;9.318;2022-12-18T03:01:24;66.00;;;43.75;;
1336;SDS011;662;48.814;9.318;2022-12-18T03:04:29;65.55;;;42.08;;
1336;SDS011;662;48.814;9.318;2022-12-18T03:06:57;76.78;;;46.25;;
1336;SDS011;662;48.814;9.318;2022-12-18T03:09:28;69.82;;;44.75;;
1336;SDS011;662;48.814;9.318;2022-12-18T03:12:08;68.82;;;43.75;;
1336;SDS011;662;48.814;9.318;2022-12-18T03:14:48;63.13;;;40.95;;
1336;SDS011;662;48.814;9.318;2022-12-18T03:17:44;65.18;;;41.65;;
1336;SDS011;662;48.814;9.318;2022-12-18T03:20:14;64.80;;;43.85;;
1336;SDS011;662;48.814;9.318;2022-12-18T03:22:43;65.55;;;44.13;;
1336;SDS011;662;48.814;9.318;2022-12-18T03:25:13;68.00;;;41.60;;
1336;SDS011;662;48.814;9.318;2022-12-18T03:27:42;63.80;;;41.60;;
1336;SDS011;662;48.814;9.318;2022-12-18T03:30:12;58.10;;;38.83;;
1336;SDS011;662;48.814;9.318;2022-12-18T03:32:47;57.40;;;38.25;;
1336;SDS011;662;48.814;9.318;2022-12-18T03:35:33;62.22;;;38.50;;
1336;SDS011;662;48.814;9.318;2022-12-18T03:38:02;55.92;;;38.15;;
1336;SDS011;662;48.814;9.318;2022-12-18T03:40:35;52.53;;;37.50;;
1336;SDS011;662;48.814;9.318;2022-12-18T03:43:10;52.00;;;35.22;;
1336;SDS011;662;48.814;9.318;2022-12-18T03:45:45;55.33;;;36.10;;
1336;SDS011;662;48.814;9.318;2022-12-18T03:50:48;60.20;;;35.80;;
1336;SDS011;662;48.814;9.318;2022-12-18T03:55:46;50.00;;;35.42;;
1336;SDS011;662;48.814;9.318;2022-12-18T03:58:15;52.70;;;35.92;;
1336;SDS011;662;48.814;9.318;2022-12-18T04:00:43;49.80;;;35.47;;
1336;SDS011;662;48.814;9.318;2022-12-18T04:03:09;52.83;;;35.63;;
1336;SDS011;662;48.814;9.318;2022-12-18T04:05:36;51.28;;;36.35;;
1336;SDS011;662;48.814;9.318;2022-12-18T04:08:03;47.53;;;35.22;;
1336;SDS011;662;48.814;9.318;2022-12-18T04:10:30;53.67;;;35.40;;
1336;SDS011;662;48.814;9.318;2022-12-18T04:12:56;57.60;;;37.90;;
1336;SDS011;662;48.814;9.318;2022-12-18T04:15:23;47.95;;;34.38;;
1336;SDS011;662;48.814;9.318;2022-12-18T04:17:49;54.75;;;35.95;;
1336;SDS011;662;48.814;9.318;2022-12-18T04:20:15;58.15;;;37.10;;
1336;SDS011;662;48.814;9.318;2022-12-18T04:22:41;51.47;;;34.95;;
1336;SDS011;662;48.814;9.318;2022-12-18T04:25:07;53.22;;;34.97;;
1336;SDS011;662;48.814;9.318;2022-12-18T04:27:33;50.20;;;33.73;;
1336;SDS011;662;48.814;9.318;2022-12-18T04:29:59;56.30;;;34.30;;
1336;SDS011;662;48.814;9.318;2022-12-18T04:32:25;49.25;;;34.58;;
1336;SDS011;662;48.814;9.318;2022-12-18T04:34:51;54.80;;;33.93;;
1336;SDS011;662;48.814;9.318;2022-12-18T04:37:17;51.80;;;32.33;;
1336;SDS011;662;48.814;9.318;2022-12-18T04:39:42;49.70;;;33.57;;
1336;SDS011;662;48.814;9.318;2022-12-18T04:42:08;46.03;;;31.10;;
1336;SDS011;662;48.814;9.318;2022-12-18T04:44:34;51.70;;;32.90;;
1336;SDS011;662;48.814;9.318;2022-12-18T04:47:00;49.65;;;32.13;;
1336;SDS011;662;48.814;9.318;2022-12-18T04:49:26;43.63;;;30.87;;
1336;SDS011;662;48.814;9.318;2022-12-18T04:51:52;44.10;;;30.13;;
1336;SDS011;662;48.814;9.318;2022-12-18T04:54:18;54.60;;;33.13;;
1336;SDS011;662;48.814;9.318;2022-12-18T04:56:43;53.23;;;32.77;;
1336;SDS011;662;48.814;9.318;2022-12-18T04:59:09;52.97;;;35.40;;
1336;SDS011;662;48.814;9.318;2022-12-18T05:01:34;53.70;;;35.80;;
1336;SDS011;662;48.814;9.318;2022-12-18T05:04:01;50.23;;;35.03;;
1336;SDS011;662;48.814;9.318;2022-12-18T05:06:27;46.10;;;31.55;;
1336;SDS011;662;48.814;9.318;2022-12-18T05:08:52;43.93;;;29.60;;
1336;SDS011;662;48.814;9.318;2022-12-18T05:11:18;52.03;;;32.93;;
1336;SDS011;662;48.814;9.318;2022-12-18T05:13:44;48.43;;;31.17;;
1336;SDS011;662;48.814;9.318;2022-12-18T05:16:10;43.30;;;29.17;;
1336;SDS011;662;48.814;9.318;2022-12-18T05:18:37;47.78;;;30.15;;
1336;SDS011;662;48.814;9.318;2022-12-18T05:21:03;50.83;;;32.72;;
1336;SDS011;662;48.814;9.318;2022-12-18T05:23:29;48.10;;;32.05;;
1336;SDS011;662;48.814;9.318;2022-12-18T05:25:59;50.50;;;31.97;;
1336;SDS011;662;48.814;9.318;2022-12-18T05:28:28;45.00;;;30.88;;
1336;SDS011;662;48.814;9.318;2022-12-18T05:30:55;47.08;;;30.40;;
1336;SDS011;662;48.814;9.318;2022-12-18T05:33:23;45.10;;;30.75;;
1336;SDS011;662;48.814;9.318;2022-12-18T05:35:50;40.83;;;29.02;;
1336;SDS011;662;48.814;9.318;2022-12-18T05:38:17;43.88;;;28.38;;
1336;SDS011;662;48.814;9.318;2022-12-18T05:40:43;47.83;;;29.48;;
1336;SDS011;662;48.814;9.318;2022-12-18T05:43:09;44.87;;;28.27;;
1336;SDS011;662;48.814;9.318;2022-12-18T05:45:38;47.05;;;30.98;;
1336;SDS011;662;48.814;9.318;2022-12-18T05:48:04;48.08;;;29.55;;
1336;SDS011;662;48.814;9.318;2022-12-18T05:50:38;47.55;;;29.70;;
1336;SDS011;662;48.814;9.318;2022-12-18T05:53:06;48.92;;;30.38;;
1336;SDS011;662;48.814;9.318;2022-12-18T05:55:35;49.38;;;31.73;;
1336;SDS011;662;48.814;9.318;2022-12-18T05:58:03;49.83;;;31.02;;
1336;SDS011;662;48.814;9.318;2022-12-18T06:00:30;45.40;;;30.55;;
1336;SDS011;662;48.814;9.318;2022-12-18T06:02:57;46.17;;;30.23;;
1336;SDS011;662;48.814;9.318;2022-12-18T06:05:23;40.95;;;28.25;;
1336;SDS011;662;48.814;9.318;2022-12-18T06:07:49;45.87;;;31.03;;
1336;SDS011;662;48.814;9.318;2022-12-18T06:10:15;47.03;;;31.50;;
1336;SDS011;662;48.814;9.318;2022-12-18T06:12:41;45.97;;;30.50;;
1336;SDS011;662;48.814;9.318;2022-12-18T06:15:07;46.37;;;29.30;;
1336;SDS011;662;48.814;9.318;2022-12-18T06:17:33;44.13;;;29.00;;
1336;SDS011;662;48.814;9.318;2022-12-18T06:19:59;49.88;;;30.63;;
1336;SDS011;662;48.814;9.318;2022-12-18T06:22:26;46.83;;;30.13;;
1336;SDS011;662;48.814;9.318;2022-12-18T06:24:52;47.67;;;29.42;;
1336;SDS011;662;48.814;9.318;2022-12-18T06:27:17;42.70;;;27.57;;
1336;SDS011;662;48.814;9.318;2022-12-18T06:29:43;42.30;;;28.40;;
1336;SDS011;662;48.814;9.318;2022-12-18T06:32:09;44.87;;;29.90;;
1336;SDS011;662;48.814;9.318;2022-12-18T06:34:36;46.20;;;30.43;;
1336;SDS011;662;48.814;9.318;2022-12-18T06:37:02;47.15;;;29.60;;
1336;SDS011;662;48.814;9.318;2022-12-18T06:39:28;50.13;;;29.50;;
1336;SDS011;662;48.814;9.318;2022-12-18T06:41:54;43.13;;;27.57;;
1336;SDS011;662;48.814;9.318;2022-12-18T06:44:20;46.83;;;30.23;;
1336;SDS011;662;48.814;9.318;2022-12-18T06:46:46;46.93;;;29.67;;
1336;SDS011;662;48.814;9.318;2022-12-18T06:49:11;47.40;;;29.87;;
1336;SDS011;662;48.814;9.318;2022-12-18T06:51:37;48.30;;;29.33;;
1336;SDS011;662;48.814;9.318;2022-12-18T06:54:03;43.23;;;28.13;;
1336;SDS011;662;48.814;9.318;2022-12-18T06:56:28;39.97;;;26.97;;
1336;SDS011;662;48.814;9.318;2022-12-18T06:58:54;42.67;;;28.00;;
1336;SDS011;662;48.814;9.318;2022-12-18T07:01:20;44.43;;;27.70;;
1336;SDS011;662;48.814;9.318;2022-12-18T07:03:46;44.00;;;28.23;;
1336;SDS011;662;48.814;9.318;2022-12-18T07:06:17;43.35;;;27.13;;
1336;SDS011;662;48.814;9.318;2022-12-18T07:08:44;44.92;;;28.80;;
1336;SDS011;662;48.814;9.318;2022-12-18T07:11:11;42.88;;;28.27;;
1336;SDS011;662;48.814;9.318;2022-12-18T07:13:37;43.93;;;27.47;;
1336;SDS011;662;48.814;9.318;2022-12-18T07:18:36;46.83;;;28.23;;
1336;SDS011;662;48.814;9.318;2022-12-18T07:21:02;48.27;;;29.83;;
1336;SDS011;662;48.814;9.318;2022-12-18T07:23:29;41.10;;;28.75;;
1336;SDS011;662;48.814;9.318;2022-12-18T07:25:55;41.63;;;27.33;;
1336;SDS011;662;48.814;9.318;2022-12-18T07:28:20;44.77;;;29.50;;
1336;SDS011;662;48.814;9.318;2022-12-18T07:30:46;46.83;;;28.20;;
1336;SDS011;662;48.814;9.318;2022-12-18T07:33:12;46.30;;;28.33;;
1336;SDS011;662;48.814;9.318;2022-12-18T07:35:37;48.30;;;28.40;;
1336;SDS011;662;48.814;9.318;2022-12-18T07:38:03;43.20;;;28.57;;
1336;SDS011;662;48.814;9.318;2022-12-18T07:40:28;48.63;;;29.70;;
1336;SDS011;662;48.814;9.318;2022-12-18T07:42:54;45.17;;;28.97;;
1336;SDS011;662;48.814;9.318;2022-12-18T07:45:19;43.63;;;27.50;;
1336;SDS011;662;48.814;9.318;2022-12-18T07:47:45;47.87;;;28.90;;
1336;SDS011;662;48.814;9.318;2022-12-18T07:50:11;43.70;;;28.13;;
1336;SDS011;662;48.814;9.318;2022-12-18T07:52:36;48.50;;;29.67;;
1336;SDS011;662;48.814;9.318;2022-12-18T07:55:02;45.67;;;29.50;;
1336;SDS011;662;48.814;9.318;2022-12-18T07:57:28;46.00;;;29.33;;
1336;SDS011;662;48.814;9.318;2022-12-18T07:59:53;44.53;;;28.83;;
1336;SDS011;662;48.814;9.318;2022-12-18T08:02:19;42.10;;;27.67;;
1336;SDS011;662;48.814;9.318;2022-12-18T08:04:45;45.87;;;28.27;;
1336;SDS011;662;48.814;9.318;2022-12-18T08:07:10;44.27;;;27.97;;
1336;SDS011;662;48.814;9.318;2022-12-18T08:09:36;43.63;;;28.70;;
1336;SDS011;662;48.814;9.318;2022-12-18T08:12:01;46.00;;;29.17;;
1336;SDS011;662;48.814;9.318;2022-12-18T08:14:27;46.13;;;29.73;;
1336;SDS011;662;48.814;9.318;2022-12-18T08:16:53;42.83;;;29.97;;
1336;SDS011;662;48.814;9.318;2022-12-18T08:19:19;46.27;;;29.27;;
1336;SDS011;662;48.814;9.318;2022-12-18T08:21:44;49.20;;;30.37;;
1336;SDS011;662;48.814;9.318;2022-12-18T08:24:11;47.53;;;29.75;;
1336;SDS011;662;48.814;9.318;2022-12-18T08:26:36;42.77;;;28.40;;
1336;SDS011;662;48.814;9.318;2022-12-18T08:29:02;49.80;;;31.70;;
1336;SDS011;662;48.814;9.318;2022-12-18T08:31:28;44.07;;;29.30;;
1336;SDS011;662;48.814;9.318;2022-12-18T08:33:55;47.97;;;30.30;;
1336;SDS011;662;48.814;9.318;2022-12-18T08:36:21;47.08;;;30.20;;
1336;SDS011;662;48.814;9.318;2022-12-18T08:38:47;47.80;;;30.90;;
1336;SDS011;662;48.814;9.318;2022-12-18T08:41:14;47.10;;;30.87;;
1336;SDS011;662;48.814;9.318;2022-12-18T08:43:40;51.25;;;30.63;;
1336;SDS011;662;48.814;9.318;2022-12-18T08:46:26;52.28;;;33.30;;
1336;SDS011;662;48.814;9.318;2022-12-18T08:48:57;52.88;;;33.47;;
1336;SDS011;662;48.814;9.318;2022-12-18T08:51:23;51.67;;;32.43;;
1336;SDS011;662;48.814;9.318;2022-12-18T08:53:48;49.73;;;33.37;;
1336;SDS011;662;48.814;9.318;2022-12-18T08:56:14;50.23;;;33.63;;
1336;SDS011;662;48.814;9.318;2022-12-18T08:58:40;48.55;;;32.50;;
1336;SDS011;662;48.814;9.318;2022-12-18T09:01:07;52.20;;;33.10;;
1336;SDS011;662;48.814;9.318;2022-12-18T09:03:34;47.60;;;32.47;;
1336;SDS011;662;48.814;9.318;2022-12-18T09:06:01;48.70;;;34.40;;
1336;SDS011;662;48.814;9.318;2022-12-18T09:08:27;49.58;;;33.97;;
1336;SDS011;662;48.814;9.318;2022-12-18T09:10:53;53.83;;;33.60;;
1336;SDS011;662;48.814;9.318;2022-12-18T09:13:20;46.22;;;31.60;;
1336;SDS011;662;48.814;9.318;2022-12-18T09:15:55;51.45;;;35.50;;
1336;SDS011;662;48.814;9.318;2022-12-18T09:18:21;49.75;;;33.95;;
1336;SDS011;662;48.814;9.318;2022-12-18T09:20:48;47.90;;;32.45;;
1336;SDS011;662;48.814;9.318;2022-12-18T09:23:15;57.28;;;34.10;;
1336;SDS011;662;48.814;9.318;2022-12-18T09:25:41;49.40;;;33.40;;
1336;SDS011;662;48.814;9.318;2022-12-18T09:28:10;52.57;;;32.73;;
1336;SDS011;662;48.814;9.318;2022-12-18T09:30:40;49.60;;;33.35;;
1336;SDS011;662;48.814;9.318;2022-12-18T09:33:07;56.33;;;35.15;;
1336;SDS011;662;48.814;9.318;2022-12-18T09:35:35;54.40;;;36.40;;
1336;SDS011;662;48.814;9.318;2022-12-18T09:38:02;51.42;;;37.33;;
1336;SDS011;662;48.814;9.318;2022-12-18T09:40:28;53.43;;;37.30;;
1336;SDS011;662;48.814;9.318;2022-12-18T09:43:00;54.53;;;37.55;;
1336;SDS011;662;48.814;9.318;2022-12-18T09:45:42;57.15;;;37.72;;
1336;SDS011;662;48.814;9.318;2022-12-18T09:48:21;55.15;;;35.40;;
1336;SDS011;662;48.814;9.318;2022-12-18T09:50:51;54.28;;;36.58;;
1336;SDS011;662;48.814;9.318;2022-12-18T09:53:26;52.35;;;33.28;;
1336;SDS011;662;48.814;9.318;2022-12-18T09:55:55;55.95;;;33.25;;
1336;SDS011;662;48.814;9.318;2022-12-18T10:00:56;53.70;;;35.28;;
1336;SDS011;662;48.814;9.318;2022-12-18T10:03:22;52.07;;;32.50;;
1336;SDS011;662;48.814;9.318;2022-12-18T10:05:54;56.22;;;34.90;;
1336;SDS011;662;48.814;9.318;2022-12-18T10:08:36;52.60;;;33.92;;
1336;SDS011;662;48.814;9.318;2022-12-18T10:14:22;56.03;;;32.88;;
1336;SDS011;662;48.814;9.318;2022-12-18T10:20:01;51.30;;;32.85;;
1336;SDS011;662;48.814;9.318;2022-12-18T10:28:10;54.15;;;33.72;;
1336;SDS011;662;48.814;9.318;2022-12-18T10:30:39;49.25;;;31.85;;
1336;SDS011;662;48.814;9.318;2022-12-18T10:33:11;49.45;;;31.15;;
1336;SDS011;662;48.814;9.318;2022-12-18T10:35:40;46.75;;;31.17;;
1336;SDS011;662;48.814;9.318;2022-12-18T10:40:52;50.30;;;34.93;;
1336;SDS011;662;48.814;9.318;2022-12-18T10:43:28;53.07;;;36.60;;
1336;SDS011;662;48.814;9.318;2022-12-18T10:48:38;53.20;;;33.97;;
1336;SDS011;662;48.814;9.318;2022-12-18T10:51:11;53.25;;;36.00;;
1336;SDS011;662;48.814;9.318;2022-12-18T10:56:40;53.43;;;34.53;;
1336;SDS011;662;48.814;9.318;2022-12-18T10:59:06;47.80;;;34.10;;
1336;SDS011;662;48.814;9.318;2022-12-18T11:06:58;46.67;;;34.08;;
1336;SDS011;662;48.814;9.318;2022-12-18T11:09:30;46.73;;;31.90;;
1336;SDS011;662;48.814;9.318;2022-12-18T11:11:58;50.07;;;34.63;;
1336;SDS011;662;48.814;9.318;2022-12-18T11:14:27;43.90;;;29.70;;
1336;SDS011;662;48.814;9.318;2022-12-18T11:17:17;41.87;;;28.73;;
1336;SDS011;662;48.814;9.318;2022-12-18T11:19:56;44.07;;;29.33;;
1336;SDS011;662;48.814;9.318;2022-12-18T11:22:27;41.20;;;28.80;;
1336;SDS011;662;48.814;9.318;2022-12-18T11:24:59;38.20;;;28.10;;
1336;SDS011;662;48.814;9.318;2022-12-18T11:27:47;41.20;;;29.47;;
1336;SDS011;662;48.814;9.318;2022-12-18T11:38:10;43.10;;;29.67;;
1336;SDS011;662;48.814;9.318;2022-12-18T11:40:42;43.07;;;29.67;;
1336;SDS011;662;48.814;9.318;2022-12-18T11:45:50;45.53;;;31.03;;
1336;SDS011;662;48.814;9.318;2022-12-18T11:48:38;43.33;;;30.80;;
1336;SDS011;662;48.814;9.318;2022-12-18T11:52:18;39.83;;;29.43;;
1336;SDS011;662;48.814;9.318;2022-12-18T11:54:14;45.07;;;32.23;;
1336;SDS011;662;48.814;9.318;2022-12-18T11:56:46;44.70;;;31.23;;
1336;SDS011;662;48.814;9.318;2022-12-18T12:07:48;46.57;;;31.50;;
1336;SDS011;662;48.814;9.318;2022-12-18T12:21:40;44.63;;;30.33;;
1336;SDS011;662;48.814;9.318;2022-12-18T12:40:23;43.33;;;29.90;;
1336;SDS011;662;48.814;9.318;2022-12-18T12:42:55;44.30;;;28.87;;
1336;SDS011;662;48.814;9.318;2022-12-18T12:51:19;42.30;;;29.13;;
1336;SDS011;662;48.814;9.318;2022-12-18T12:53:48;43.83;;;29.87;;
1336;SDS011;662;48.814;9.318;2022-12-18T12:56:15;46.30;;;29.63;;
1336;SDS011;662;48.814;9.318;2022-12-18T13:01:52;39.77;;;29.27;;
1336;SDS011;662;48.814;9.318;2022-12-18T13:04:49;43.30;;;30.40;;
1336;SDS011;662;48.814;9.318;2022-12-18T13:07:27;46.97;;;29.60;;
1336;SDS011;662;48.814;9.318;2022-12-18T13:13:00;39.53;;;26.20;;
1336;SDS011;662;48.814;9.318;2022-12-18T13:15:34;39.57;;;24.13;;
1336;SDS011;662;48.814;9.318;2022-12-18T13:18:11;41.57;;;28.00;;
1336;SDS011;662;48.814;9.318;2022-12-18T13:25:53;42.27;;;27.73;;
1336;SDS011;662;48.814;9.318;2022-12-18T13:30:59;38.90;;;27.73;;
1336;SDS011;662;48.814;9.318;2022-12-18T13:38:38;45.30;;;28.67;;
1336;SDS011;662;48.814;9.318;2022-12-18T13:44:30;44.77;;;28.20;;
1336;SDS011;662;48.814;9.318;2022-12-18T13:46:42;43.03;;;26.10;;
1336;SDS011;662;48.814;9.318;2022-12-18T13:51:42;41.97;;;28.53;;
1336;SDS011;662;48.814;9.318;2022-12-18T13:54:19;41.73;;;26.70;;
1336;SDS011;662;48.814;9.318;2022-12-18T13:56:59;39.13;;;26.43;;
1336;SDS011;662;48.814;9.318;2022-12-18T13:59:26;40.73;;;27.30;;
1336;SDS011;662;48.814;9.318;2022-12-18T14:04:44;43.73;;;29.03;;
1336;SDS011;662;48.814;9.318;2022-12-18T14:07:11;42.97;;;27.30;;
1336;SDS011;662;48.814;9.318;2022-12-18T14:09:42;39.67;;;24.87;;
1336;SDS011;662;48.814;9.318;2022-12-18T14:15:05;43.40;;;26.50;;
1336;SDS011;662;48.814;9.318;2022-12-18T14:17:41;44.40;;;27.30;;
1336;SDS011;662;48.814;9.318;2022-12-18T14:20:12;44.53;;;27.23;;
1336;SDS011;662;48.814;9.318;2022-12-18T14:22:42;43.97;;;27.60;;
1336;SDS011;662;48.814;9.318;2022-12-18T14:27:40;44.03;;;28.90;;
1336;SDS011;662;48.814;9.318;2022-12-18T14:35:34;40.60;;;28.27;;
1336;SDS011;662;48.814;9.318;2022-12-18T14:38:20;40.60;;;28.60;;
1336;SDS011;662;48.814;9.318;2022-12-18T14:40:58;45.67;;;31.40;;
1336;SDS011;662;48.814;9.318;2022-12-18T14:43:24;49.93;;;31.37;;
1336;SDS011;662;48.814;9.318;2022-12-18T14:45:54;40.77;;;31.03;;
1336;SDS011;662;48.814;9.318;2022-12-18T14:48:37;46.63;;;32.70;;
1336;SDS011;662;48.814;9.318;2022-12-18T14:53:39;42.23;;;31.17;;
1336;SDS011;662;48.814;9.318;2022-12-18T14:59:13;42.00;;;31.10;;
1336;SDS011;662;48.814;9.318;2022-12-18T15:02:24;44.40;;;31.33;;
1336;SDS011;662;48.814;9.318;2022-12-18T15:05:14;46.13;;;33.97;;
1336;SDS011;662;48.814;9.318;2022-12-18T15:07:43;46.90;;;33.27;;
1336;SDS011;662;48.814;9.318;2022-12-18T15:10:20;44.27;;;32.67;;
1336;SDS011;662;48.814;9.318;2022-12-18T15:12:50;43.83;;;32.47;;
1336;SDS011;662;48.814;9.318;2022-12-18T15:18:02;45.03;;;33.97;;
1336;SDS011;662;48.814;9.318;2022-12-18T15:20:43;48.17;;;33.77;;
1336;SDS011;662;48.814;9.318;2022-12-18T15:23:51;52.47;;;35.17;;
1336;SDS011;662;48.814;9.318;2022-12-18T15:26:06;49.00;;;33.13;;
1336;SDS011;662;48.814;9.318;2022-12-18T15:28:35;47.37;;;34.30;;
1336;SDS011;662;48.814;9.318;2022-12-18T15:33:46;45.80;;;33.47;;
1336;SDS011;662;48.814;9.318;2022-12-18T15:36:28;48.97;;;33.63;;
1336;SDS011;662;48.814;9.318;2022-12-18T15:39:01;45.07;;;32.20;;
1336;SDS011;662;48.814;9.318;2022-12-18T15:41:27;45.47;;;32.93;;
1336;SDS011;662;48.814;9.318;2022-12-18T15:43:53;43.80;;;30.93;;
1336;SDS011;662;48.814;9.318;2022-12-18T15:46:20;45.50;;;31.60;;
1336;SDS011;662;48.814;9.318;2022-12-18T15:48:50;47.63;;;31.40;;
1336;SDS011;662;48.814;9.318;2022-12-18T15:51:19;44.23;;;31.40;;
1336;SDS011;662;48.814;9.318;2022-12-18T15:53:54;48.20;;;33.50;;
1336;SDS011;662;48.814;9.318;2022-12-18T15:56:21;44.03;;;32.03;;
1336;SDS011;662;48.814;9.318;2022-12-18T15:59:11;44.53;;;31.17;;
1336;SDS011;662;48.814;9.318;2022-12-18T16:01:43;41.03;;;30.57;;
1336;SDS011;662;48.814;9.318;2022-12-18T16:04:11;42.20;;;30.97;;
1336;SDS011;662;48.814;9.318;2022-12-18T16:06:38;48.93;;;33.33;;
1336;SDS011;662;48.814;9.318;2022-12-18T16:09:04;46.57;;;32.20;;
1336;SDS011;662;48.814;9.318;2022-12-18T16:11:31;46.30;;;32.53;;
1336;SDS011;662;48.814;9.318;2022-12-18T16:14:23;45.37;;;33.00;;
1336;SDS011;662;48.814;9.318;2022-12-18T16:16:59;44.00;;;30.80;;
1336;SDS011;662;48.814;9.318;2022-12-18T16:19:30;43.97;;;30.70;;
1336;SDS011;662;48.814;9.318;2022-12-18T16:21:56;39.93;;;29.57;;
1336;SDS011;662;48.814;9.318;2022-12-18T16:24:27;42.97;;;30.73;;
1336;SDS011;662;48.814;9.318;2022-12-18T16:26:55;41.57;;;30.33;;
1336;SDS011;662;48.814;9.318;2022-12-18T16:29:22;43.43;;;30.30;;
1336;SDS011;662;48.814;9.318;2022-12-18T16:31:52;43.07;;;31.47;;
1336;SDS011;662;48.814;9.318;2022-12-18T16:34:19;44.13;;;31.60;;
1336;SDS011;662;48.814;9.318;2022-12-18T16:36:48;43.00;;;31.20;;
1336;SDS011;662;48.814;9.318;2022-12-18T16:39:15;49.23;;;32.90;;
1336;SDS011;662;48.814;9.318;2022-12-18T16:41:40;46.97;;;33.40;;
1336;SDS011;662;48.814;9.318;2022-12-18T16:44:06;46.53;;;33.17;;
1336;SDS011;662;48.814;9.318;2022-12-18T16:46:32;44.80;;;32.50;;
1336;SDS011;662;48.814;9.318;2022-12-18T16:48:58;43.43;;;32.43;;
1336;SDS011;662;48.814;9.318;2022-12-18T16:51:25;46.63;;;34.60;;
1336;SDS011;662;48.814;9.318;2022-12-18T16:53:51;45.20;;;32.40;;
1336;SDS011;662;48.814;9.318;2022-12-18T16:56:18;45.53;;;32.70;;
1336;SDS011;662;48.814;9.318;2022-12-18T16:58:49;47.47;;;33.47;;
1336;SDS011;662;48.814;9.318;2022-12-18T17:01:15;45.97;;;31.30;;
1336;SDS011;662;48.814;9.318;2022-12-18T17:03:41;44.67;;;30.50;;
1336;SDS011;662;48.814;9.318;2022-12-18T17:06:07;44.90;;;32.17;;
1336;SDS011;662;48.814;9.318;2022-12-18T17:08:32;46.30;;;32.60;;
1336;SDS011;662;48.814;9.318;2022-12-18T17:11:05;46.90;;;32.33;;
1336;SDS011;662;48.814;9.318;2022-12-18T17:13:31;46.80;;;31.50;;
1336;SDS011;662;48.814;9.318;2022-12-18T17:16:04;46.07;;;32.80;;
1336;SDS011;662;48.814;9.318;2022-12-18T17:18:30;42.47;;;30.13;;
1336;SDS011;662;48.814;9.318;2022-12-18T17:20:59;43.93;;;30.33;;
1336;SDS011;662;48.814;9.318;2022-12-18T17:23:26;43.67;;;31.47;;
1336;SDS011;662;48.814;9.318;2022-12-18T17:25:53;42.83;;;30.60;;
1336;SDS011;662;48.814;9.318;2022-12-18T17:28:21;43.17;;;29.87;;
1336;SDS011;662;48.814;9.318;2022-12-18T17:30:47;43.73;;;30.50;;
1336;SDS011;662;48.814;9.318;2022-12-18T17:33:13;44.00;;;31.50;;
1336;SDS011;662;48.814;9.318;2022-12-18T17:35:38;42.97;;;31.07;;
1336;SDS011;662;48.814;9.318;2022-12-18T17:38:04;43.80;;;31.40;;
1336;SDS011;662;48.814;9.318;2022-12-18T17:40:31;39.77;;;30.07;;
1336;SDS011;662;48.814;9.318;2022-12-18T17:42:57;43.10;;;30.10;;
1336;SDS011;662;48.814;9.318;2022-12-18T17:45:23;44.63;;;31.10;;